地図

経路データ

SID SEASON NUMBER BASIN SUBBASIN NAME ISO_TIME NATURE LAT LON WMO_WIND WMO_PRES WMO_AGENCY TRACK_TYPE DIST2LAND LANDFALL IFLAG USA_AGENCY USA_ATCF_ID USA_LAT USA_LON USA_RECORD USA_STATUS USA_WIND USA_PRES USA_SSHS USA_R34_NE USA_R34_SE USA_R34_SW USA_R34_NW USA_R50_NE USA_R50_SE USA_R50_SW USA_R50_NW USA_R64_NE USA_R64_SE USA_R64_SW USA_R64_NW USA_POCI USA_ROCI USA_RMW USA_EYE TOKYO_LAT TOKYO_LON TOKYO_GRADE TOKYO_WIND TOKYO_PRES TOKYO_R50_DIR TOKYO_R50_LONG TOKYO_R50_SHORT TOKYO_R30_DIR TOKYO_R30_LONG TOKYO_R30_SHORT TOKYO_LAND CMA_LAT CMA_LON CMA_CAT CMA_WIND CMA_PRES HKO_LAT HKO_LON HKO_CAT HKO_WIND HKO_PRES NEWDELHI_LAT NEWDELHI_LON NEWDELHI_GRADE NEWDELHI_WIND NEWDELHI_PRES NEWDELHI_CI NEWDELHI_DP NEWDELHI_POCI REUNION_LAT REUNION_LON REUNION_TYPE REUNION_WIND REUNION_PRES REUNION_TNUM REUNION_CI REUNION_RMW REUNION_R34_NE REUNION_R34_SE REUNION_R34_SW REUNION_R34_NW REUNION_R50_NE REUNION_R50_SE REUNION_R50_SW REUNION_R50_NW REUNION_R64_NE REUNION_R64_SE REUNION_R64_SW REUNION_R64_NW BOM_LAT BOM_LON BOM_TYPE BOM_WIND BOM_PRES BOM_TNUM BOM_CI BOM_RMW BOM_R34_NE BOM_R34_SE BOM_R34_SW BOM_R34_NW BOM_R50_NE BOM_R50_SE BOM_R50_SW BOM_R50_NW BOM_R64_NE BOM_R64_SE BOM_R64_SW BOM_R64_NW BOM_ROCI BOM_POCI BOM_EYE BOM_POS_METHOD BOM_PRES_METHOD NADI_LAT NADI_LON NADI_CAT NADI_WIND NADI_PRES WELLINGTON_LAT WELLINGTON_LON WELLINGTON_WIND WELLINGTON_PRES DS824_LAT DS824_LON DS824_STAGE DS824_WIND DS824_PRES TD9636_LAT TD9636_LON TD9636_STAGE TD9636_WIND TD9636_PRES TD9635_LAT TD9635_LON TD9635_WIND TD9635_PRES TD9635_ROCI NEUMANN_LAT NEUMANN_LON NEUMANN_CLASS NEUMANN_WIND NEUMANN_PRES MLC_LAT MLC_LON MLC_CLASS MLC_WIND MLC_PRES USA_GUST BOM_GUST BOM_GUST_PER REUNION_GUST REUNION_GUST_PER USA_SEAHGT USA_SEARAD_NE USA_SEARAD_SE USA_SEARAD_SW USA_SEARAD_NW STORM_SPEED STORM_DIR
1887193N23091 1887 22 NI BB NOT_NAMED 1887-07-12 00:00:00 TS 22.5000 90.6000 main 10 0 _________O____ -1 22.5000 90.6000 TC 30 3 255
1887193N23091 1887 22 NI BB NOT_NAMED 1887-07-12 03:00:00 TS 22.4584 90.4333 main 0 0 _________PO___ -1 22.4376 90.3499 TC 30 22.5000 90.6000 1 4 259
1887193N23091 1887 22 NI BB NOT_NAMED 1887-07-12 06:00:00 TS 22.4297 90.1900 main 0 0 _________OP___ -1 22.4000 90.1000 TC 30 22.4743 90.3249 1 5 265
1887193N23091 1887 22 NI BB NOT_NAMED 1887-07-12 09:00:00 TS 22.4208 89.9400 main 0 0 _________PP___ -1 22.4000 89.8501 TC 30 22.4486 90.0599 1 4 268
1887193N23091 1887 22 NI BB NOT_NAMED 1887-07-12 12:00:00 TS 22.4118 89.7074 main 0 0 _________OP___ -1 22.4000 89.6000 TC 30 22.4236 89.8149 1 4 264
1887193N23091 1887 22 NI BB NOT_NAMED 1887-07-12 15:00:00 TS 22.3750 89.4750 main 0 0 _________PO___ -1 22.3500 89.3499 TC 30 22.4000 89.6000 1 4 260
1887193N23091 1887 22 NI BB NOT_NAMED 1887-07-12 18:00:00 TS 22.3390 89.2576 main 0 0 _________OP___ -1 22.3000 89.1000 TC 30 22.3779 89.4151 1 4 263
1887193N23091 1887 22 NI BB NOT_NAMED 1887-07-12 21:00:00 TS 22.3276 89.0652 main 0 0 _________PP___ -1 22.2995 88.9101 TC 30 22.3556 89.2202 1 4 267
1887193N23091 1887 22 NI BB NOT_NAMED 1887-07-13 00:00:00 TS 22.3153 88.7826 main 0 0 _________OP___ -1 22.3000 88.6000 TC 30 22.3306 88.9652 1 7 266
1887193N23091 1887 22 NI BB NOT_NAMED 1887-07-13 03:00:00 TS 22.2789 88.3049 main 0 0 _________PO___ -1 22.2578 88.0099 TC 30 22.3000 88.6000 1 10 265
1887193N23091 1887 22 NI BB NOT_NAMED 1887-07-13 06:00:00 TS 22.2271 87.6803 main 0 0 _________OP___ -1 22.2000 87.3000 TC 30 22.2541 88.0606 1 12 265
1887193N23091 1887 22 NI BB NOT_NAMED 1887-07-13 09:00:00 TS 22.1756 87.0272 main 0 0 _________PP___ -1 22.1498 86.6425 TC 30 22.2014 87.4119 1 12 265
1887193N23091 1887 22 NI BB NOT_NAMED 1887-07-13 12:00:00 TS 22.1239 86.3537 main 0 0 _________OP___ -1 22.1000 86.0000 TC 30 22.1477 86.7074 1 12 265
1887193N23091 1887 22 NI BB NOT_NAMED 1887-07-13 15:00:00 TS 22.0711 85.7000 main 0 0 _________PO___ -1 22.0421 85.4000 TC 30 22.1000 86.0000 1 12 265
1887193N23091 1887 22 NI BB NOT_NAMED 1887-07-13 18:00:00 TS 22.0313 85.0880 main 0 0 _________OP___ -1 22.0000 84.8000 TC 30 22.0627 85.3761 1 12 267
1887193N23091 1887 22 NI BB NOT_NAMED 1887-07-13 21:00:00 TS 22.0129 84.4576 main 0 0 _________PP___ -1 21.9923 84.1576 TC 30 22.0335 84.7576 1 12 269
1887193N23091 1887 22 NI BB NOT_NAMED 1887-07-14 00:00:00 TS 22.0063 83.8177 main 0 0 _________OP___ -1 22.0000 83.5000 TC 30 22.0127 84.1353 1 12 269
1887193N23091 1887 22 NI BB NOT_NAMED 1887-07-14 03:00:00 TS 21.9998 83.1787 main 0 0 _________PO___ -1 21.9997 82.8575 TC 30 22.0000 83.5000 1 12 269
1887193N23091 1887 22 NI BB NOT_NAMED 1887-07-14 06:00:00 TS 21.9921 82.5176 main 0 0 _________OP___ -1 22.0000 82.2000 TC 30 21.9843 82.8352 1 13 269
1887193N23091 1887 22 NI BB NOT_NAMED 1887-07-14 09:00:00 TS 21.9847 81.8286 main 0 0 _________PP___ -1 21.9924 81.4999 TC 30 21.9769 82.1573 1 13 270
1887193N23091 1887 22 NI BB NOT_NAMED 1887-07-14 12:00:00 TS 21.9906 81.1379 main 0 0 _________OP___ -1 22.0000 80.8000 TC 30 21.9811 81.4757 1 13 272
1887193N23091 1887 22 NI BB NOT_NAMED 1887-07-14 15:00:00 TS 22.0211 80.4713 main 0 0 _________PO___ -1 22.0422 80.1426 TC 30 22.0000 80.8000 1 12 274
1887193N23091 1887 22 NI BB NOT_NAMED 1887-07-14 18:00:00 TS 22.0632 79.8642 main 0 0 _________OP___ -1 22.1000 79.5000 TC 30 22.0356 80.1373 1 12 275
1887193N23091 1887 22 NI BB NOT_NAMED 1887-07-14 21:00:00 TS 22.1117 79.2324 main 0 0 _________PP___ -1 22.1531 78.8525 TC 30 22.0842 79.4857 1 12 275
1887193N23091 1887 22 NI BB NOT_NAMED 1887-07-15 00:00:00 TS 22.1605 78.6275 main 0 0 _________OP___ -1 22.2000 78.2000 TC 30 22.1407 78.8412 1 10 275
1887193N23091 1887 22 NI BB NOT_NAMED 1887-07-15 03:00:00 NR 22.2000 78.2000 main 0 __________O___ -1 TC 22.2000 78.2000 1 8 276

IBTrACS Databaseについて

本データベースは、米国NOAAが公開する1842年以降の世界の熱帯低気圧のベストトラックデータアーカイブInternational Best Track Archive for Climate Stewardship (IBTrACS)を、ウェブで閲覧しやすい形式に変換したものです。

最終更新日:2021-10-21